createdAt,value
2022-10-17T00:01:28.277Z,3.03
2022-10-17T00:03:54.714Z,3.35
2022-10-17T00:06:21.198Z,3.40
2022-10-17T00:08:47.626Z,2.65
2022-10-17T00:11:19.840Z,3.63
2022-10-17T00:13:47.915Z,3.25
2022-10-17T00:16:15.454Z,4.30
2022-10-17T00:18:41.969Z,2.97
2022-10-17T00:21:15.578Z,3.28
2022-10-17T00:23:42.017Z,3.65
2022-10-17T00:26:08.507Z,3.30
2022-10-17T00:28:35.252Z,3.80
2022-10-17T00:31:06.625Z,4.10
2022-10-17T00:33:35.189Z,3.75
2022-10-17T00:36:13.428Z,3.47
2022-10-17T00:38:41.348Z,3.55
2022-10-17T00:41:08.886Z,4.53
2022-10-17T00:43:53.617Z,3.50
2022-10-17T00:46:22.057Z,3.17
2022-10-17T00:48:54.470Z,3.63
2022-10-17T00:51:26.851Z,3.27
2022-10-17T00:53:53.503Z,3.33
2022-10-17T00:56:21.286Z,3.45
2022-10-17T00:58:48.506Z,3.40
2022-10-17T01:01:16.004Z,3.08
2022-10-17T01:03:42.928Z,3.28
2022-10-17T01:06:09.487Z,2.67
2022-10-17T01:08:36.361Z,3.20
2022-10-17T01:11:46.975Z,2.63
2022-10-17T01:14:26.018Z,2.92
2022-10-17T01:17:02.930Z,3.40
2022-10-17T01:19:59.313Z,2.95
2022-10-17T01:22:41.857Z,3.40
2022-10-17T01:25:39.935Z,3.50
2022-10-17T01:28:15.526Z,3.20
2022-10-17T01:30:47.739Z,3.35
2022-10-17T01:33:32.660Z,3.15
2022-10-17T01:36:11.395Z,3.08
2022-10-17T01:38:48.992Z,2.60
2022-10-17T01:41:42.196Z,2.35
2022-10-17T01:44:23.229Z,2.95
2022-10-17T01:46:51.067Z,3.38
2022-10-17T01:49:23.740Z,2.45
2022-10-17T01:51:57.637Z,3.35
2022-10-17T01:54:41.457Z,3.28
2022-10-17T01:57:14.069Z,2.90
2022-10-17T01:59:43.750Z,4.18
2022-10-17T02:02:11.900Z,4.30
2022-10-17T02:04:38.553Z,3.20
2022-10-17T02:07:12.456Z,2.75
2022-10-17T02:09:40.016Z,2.35
2022-10-17T02:12:17.641Z,3.33
2022-10-17T02:15:08.893Z,3.33
2022-10-17T02:17:57.265Z,2.83
2022-10-17T02:20:35.513Z,2.83
2022-10-17T02:26:02.933Z,2.85
2022-10-17T02:28:33.187Z,3.63
2022-10-17T02:31:22.645Z,2.92
2022-10-17T02:34:00.574Z,2.97
2022-10-17T02:36:32.432Z,3.03
2022-10-17T02:39:00.907Z,3.10
2022-10-17T02:43:58.810Z,2.72
2022-10-17T02:46:29.254Z,3.03
2022-10-17T02:49:00.921Z,3.22
2022-10-17T02:51:47.870Z,3.10
2022-10-17T02:54:34.411Z,3.08
2022-10-17T02:57:12.651Z,3.45
2022-10-17T02:59:41.835Z,3.38
2022-10-17T03:02:08.273Z,3.20
2022-10-17T03:04:34.892Z,3.47
2022-10-17T03:07:01.331Z,3.00
2022-10-17T03:09:27.973Z,3.22
2022-10-17T03:11:54.517Z,3.70
2022-10-17T03:14:20.968Z,2.88
2022-10-17T03:16:47.383Z,3.28
2022-10-17T03:19:13.840Z,3.70
2022-10-17T03:21:40.315Z,3.33
2022-10-17T03:24:07.138Z,3.30
2022-10-17T03:26:33.646Z,3.30
2022-10-17T03:29:00.115Z,3.40
2022-10-17T03:31:26.561Z,3.35
2022-10-17T03:33:53.087Z,3.10
2022-10-17T03:36:19.639Z,3.47
2022-10-17T03:38:46.421Z,3.08
2022-10-17T03:41:12.965Z,3.47
2022-10-17T03:43:40.071Z,3.30
2022-10-17T03:46:07.403Z,2.80
2022-10-17T03:48:34.210Z,3.40
2022-10-17T03:51:05.988Z,3.33
2022-10-17T03:53:33.179Z,3.22
2022-10-17T03:56:17.657Z,3.25
2022-10-17T03:58:44.544Z,3.22
2022-10-17T04:01:13.245Z,3.28
2022-10-17T04:03:40.959Z,3.13
2022-10-17T04:06:07.519Z,3.35
2022-10-17T04:08:34.742Z,3.25
2022-10-17T04:11:02.887Z,3.30
2022-10-17T04:13:29.680Z,3.60
2022-10-17T04:15:58.322Z,2.95
2022-10-17T04:18:25.598Z,3.30
2022-10-17T04:20:52.309Z,3.40
2022-10-17T04:23:19.165Z,3.10
2022-10-17T04:25:45.937Z,3.00
2022-10-17T04:28:12.399Z,3.65
2022-10-17T04:30:41.184Z,3.28
2022-10-17T04:33:10.074Z,3.28
2022-10-17T04:35:36.573Z,4.32
2022-10-17T04:38:03.011Z,3.55
2022-10-17T04:40:29.546Z,3.25
2022-10-17T04:42:56.017Z,3.45
2022-10-17T04:45:22.462Z,3.15
2022-10-17T04:47:48.915Z,2.75
2022-10-17T04:50:15.494Z,2.97
2022-10-17T04:52:41.947Z,3.95
2022-10-17T04:55:08.632Z,3.60
2022-10-17T04:57:35.789Z,3.28
2022-10-17T05:00:02.447Z,3.70
2022-10-17T05:02:29.221Z,3.85
2022-10-17T05:04:55.831Z,3.63
2022-10-17T05:07:22.256Z,3.10
2022-10-17T05:09:48.706Z,4.03
2022-10-17T05:12:15.111Z,3.35
2022-10-17T05:14:41.535Z,3.50
2022-10-17T05:17:08.638Z,3.15
2022-10-17T05:19:35.086Z,3.80
2022-10-17T05:22:01.521Z,4.00
2022-10-17T05:24:27.920Z,3.40
2022-10-17T05:26:54.320Z,3.40
2022-10-17T05:29:20.814Z,3.20
2022-10-17T05:31:47.255Z,3.55
2022-10-17T05:34:14.057Z,3.58
2022-10-17T05:36:40.805Z,3.67
2022-10-17T05:39:07.250Z,3.33
2022-10-17T05:41:33.705Z,3.05
2022-10-17T05:44:03.140Z,3.13
2022-10-17T05:46:31.938Z,3.65
2022-10-17T05:48:58.353Z,3.45
2022-10-17T05:51:24.833Z,4.30
2022-10-17T05:53:51.290Z,4.45
2022-10-17T05:56:19.123Z,3.35
2022-10-17T05:58:50.189Z,4.07
2022-10-17T06:01:18.164Z,4.65
2022-10-17T06:03:44.630Z,3.70
2022-10-17T06:06:13.017Z,3.53
2022-10-17T06:08:39.473Z,3.85
2022-10-17T06:11:09.241Z,4.05
2022-10-17T06:13:36.992Z,4.30
2022-10-17T06:16:03.480Z,3.50
2022-10-17T06:18:30.033Z,4.10
2022-10-17T06:21:03.333Z,3.75
2022-10-17T06:26:03.322Z,4.45
2022-10-17T06:28:30.322Z,4.50
2022-10-17T06:30:57.018Z,4.38
2022-10-17T06:33:23.582Z,4.40
2022-10-17T06:35:54.700Z,4.63
2022-10-17T06:38:21.609Z,4.47
2022-10-17T06:40:48.184Z,4.18
2022-10-17T06:43:14.699Z,3.53
2022-10-17T06:45:41.968Z,3.50
2022-10-17T06:48:08.853Z,3.65
2022-10-17T06:50:35.559Z,3.30
2022-10-17T06:53:02.086Z,2.65
2022-10-17T06:55:28.609Z,3.30
2022-10-17T06:57:56.370Z,2.85
2022-10-17T07:00:23.558Z,2.90
2022-10-17T07:02:50.276Z,3.15
2022-10-17T07:05:17.345Z,3.58
2022-10-17T07:07:45.527Z,3.78
2022-10-17T07:10:13.847Z,2.92
2022-10-17T07:12:40.337Z,4.28
2022-10-17T07:15:07.178Z,4.28
2022-10-17T07:17:33.605Z,3.17
2022-10-17T07:20:00.113Z,3.38
2022-10-17T07:22:26.577Z,3.17
2022-10-17T07:24:53.020Z,3.33
2022-10-17T07:27:19.475Z,2.75
2022-10-17T07:29:45.923Z,2.92
2022-10-17T07:32:12.413Z,3.25
2022-10-17T07:34:38.848Z,2.80
2022-10-17T07:37:06.997Z,3.65
2022-10-17T07:39:35.601Z,3.85
2022-10-17T07:42:02.091Z,3.00
2022-10-17T07:44:28.518Z,3.72
2022-10-17T07:46:54.977Z,3.60
2022-10-17T07:49:21.385Z,3.13
2022-10-17T07:51:47.982Z,3.30
2022-10-17T07:54:14.672Z,3.30
2022-10-17T07:56:41.225Z,3.33
2022-10-17T07:59:09.395Z,3.42
2022-10-17T08:01:36.940Z,3.17
2022-10-17T08:04:03.468Z,3.13
2022-10-17T08:06:29.913Z,2.67
2022-10-17T08:08:57.865Z,2.80
2022-10-17T08:11:25.344Z,2.78
2022-10-17T08:13:52.003Z,3.05
2022-10-17T08:16:18.524Z,2.20
2022-10-17T08:18:45.088Z,2.17
2022-10-17T08:21:13.324Z,2.30
2022-10-17T08:23:40.181Z,2.50
2022-10-17T08:26:10.453Z,2.70
2022-10-17T08:28:38.796Z,2.20
2022-10-17T08:31:11.103Z,2.38
2022-10-17T08:33:38.032Z,2.33
2022-10-17T08:36:05.729Z,2.42
2022-10-17T08:38:35.546Z,2.50
2022-10-17T08:41:13.152Z,2.72
2022-10-17T08:43:54.577Z,3.00
2022-10-17T08:46:21.354Z,2.72
2022-10-17T08:48:51.320Z,3.20
2022-10-17T08:51:36.194Z,3.17
2022-10-17T08:54:20.510Z,2.80
2022-10-17T08:56:50.347Z,2.80
2022-10-17T08:59:30.861Z,2.88
2022-10-17T09:02:15.315Z,3.10
2022-10-17T09:04:58.982Z,3.15
2022-10-17T09:07:35.639Z,2.63
2022-10-17T09:10:20.671Z,2.20
2022-10-17T09:12:53.110Z,2.70
2022-10-17T09:15:35.034Z,2.72
2022-10-17T09:18:21.091Z,2.83
2022-10-17T09:20:56.168Z,3.78
2022-10-17T09:23:43.082Z,2.50
2022-10-17T09:26:11.339Z,2.50
2022-10-17T09:28:41.643Z,2.90
2022-10-17T09:31:19.343Z,2.67
2022-10-17T09:33:54.253Z,2.75
2022-10-17T09:36:33.549Z,2.20
2022-10-17T09:39:20.071Z,2.92
2022-10-17T09:41:50.578Z,2.00
2022-10-17T09:44:30.052Z,2.75
2022-10-17T09:47:18.014Z,2.30
2022-10-17T09:49:47.157Z,2.45
2022-10-17T09:52:20.449Z,2.33
2022-10-17T09:55:01.667Z,2.47
2022-10-17T09:57:28.086Z,2.42
2022-10-17T10:00:03.621Z,2.28
2022-10-17T10:02:31.662Z,1.98
2022-10-17T10:05:05.047Z,2.50
2022-10-17T10:07:35.863Z,2.40
2022-10-17T10:10:04.422Z,2.58
2022-10-17T10:12:38.983Z,2.60
2022-10-17T10:15:30.643Z,2.42
2022-10-17T10:17:57.123Z,2.08
2022-10-17T10:20:31.928Z,1.60
2022-10-17T10:23:08.174Z,2.33
2022-10-17T10:25:36.083Z,2.00
2022-10-17T10:28:09.966Z,1.60
2022-10-17T10:30:39.812Z,1.77
2022-10-17T10:33:11.290Z,2.22
2022-10-17T10:35:37.970Z,2.08
2022-10-17T10:38:15.799Z,2.10
2022-10-17T10:40:54.743Z,1.95
2022-10-17T10:43:32.033Z,2.25
2022-10-17T10:45:59.475Z,2.20
2022-10-17T10:48:37.092Z,2.58
2022-10-17T10:51:14.313Z,2.00
2022-10-17T10:53:58.361Z,1.75
2022-10-17T10:56:49.793Z,1.48
2022-10-17T10:59:30.730Z,2.00
2022-10-17T11:02:09.423Z,2.10
2022-10-17T11:04:51.239Z,2.35
2022-10-17T11:07:25.801Z,1.67
2022-10-17T11:09:59.977Z,1.70
2022-10-17T11:12:34.639Z,1.88
2022-10-17T11:15:25.298Z,1.88
2022-10-17T11:17:59.195Z,2.08
2022-10-17T11:20:41.757Z,1.73
2022-10-17T11:25:41.230Z,1.70
2022-10-17T11:28:16.961Z,2.53
2022-10-17T11:31:03.313Z,1.75
2022-10-17T11:33:44.214Z,1.45
2022-10-17T11:36:11.214Z,2.20
2022-10-17T11:38:50.898Z,1.52
2022-10-17T11:41:24.272Z,1.95
2022-10-17T11:43:56.976Z,1.80
2022-10-17T11:46:26.819Z,1.70
2022-10-17T11:48:55.978Z,1.70
2022-10-17T11:54:16.597Z,1.80
2022-10-17T11:57:14.974Z,1.60
2022-10-17T11:59:57.110Z,1.55
2022-10-17T12:02:50.961Z,1.92
2022-10-17T12:05:33.267Z,1.67
2022-10-17T12:08:09.625Z,1.55
2022-10-17T12:10:44.913Z,1.40
2022-10-17T12:13:30.263Z,1.63
2022-10-17T12:15:58.077Z,1.58
2022-10-17T12:18:27.292Z,1.52
2022-10-17T12:21:00.993Z,1.30
2022-10-17T12:23:30.078Z,1.15
2022-10-17T12:26:04.829Z,1.35
2022-10-17T12:28:37.664Z,1.27
2022-10-17T12:31:06.285Z,1.40
2022-10-17T12:33:48.251Z,1.00
2022-10-17T12:36:17.738Z,1.58
2022-10-17T12:38:50.448Z,1.60
2022-10-17T12:41:37.178Z,1.10
2022-10-17T12:44:28.219Z,1.20
2022-10-17T12:47:09.410Z,3.25
2022-10-17T12:49:42.337Z,2.22
2022-10-17T12:52:21.646Z,1.27
2022-10-17T12:55:10.934Z,1.40
2022-10-17T12:57:44.448Z,1.20
2022-10-17T13:00:20.676Z,1.10
2022-10-17T13:02:49.010Z,1.58
2022-10-17T13:05:34.082Z,1.20
2022-10-17T13:08:03.601Z,1.65
2022-10-17T13:10:34.656Z,1.10
2022-10-17T13:13:08.971Z,1.48
2022-10-17T13:15:37.097Z,1.40
2022-10-17T13:18:03.999Z,1.38
2022-10-17T13:20:32.095Z,1.20
2022-10-17T13:22:59.576Z,1.45
2022-10-17T13:25:28.345Z,1.05
2022-10-17T13:28:13.723Z,1.27
2022-10-17T13:30:40.243Z,1.60
2022-10-17T13:33:31.015Z,1.40
2022-10-17T13:36:01.335Z,1.17
2022-10-17T13:38:32.475Z,1.80
2022-10-17T13:41:10.817Z,1.20
2022-10-17T13:43:43.862Z,1.60
2022-10-17T13:46:39.447Z,1.30
2022-10-17T13:49:22.178Z,1.35
2022-10-17T13:51:53.901Z,1.50
2022-10-17T13:54:41.550Z,1.17
2022-10-17T13:57:24.606Z,1.85
2022-10-17T13:59:55.040Z,1.42
2022-10-17T14:02:24.761Z,1.42
2022-10-17T14:05:20.738Z,1.50
2022-10-17T14:08:12.453Z,1.20
2022-10-17T14:10:42.288Z,1.30
2022-10-17T14:13:20.946Z,1.33
2022-10-17T14:15:47.593Z,1.40
2022-10-17T14:18:19.611Z,1.40
2022-10-17T14:21:31.724Z,1.20
2022-10-17T14:23:43.138Z,1.15
2022-10-17T14:26:21.208Z,1.40
2022-10-17T14:29:02.480Z,1.20
2022-10-17T14:31:32.066Z,1.70
2022-10-17T14:34:01.069Z,1.33
2022-10-17T14:36:42.704Z,1.25
2022-10-17T14:39:20.243Z,1.15
2022-10-17T14:41:47.939Z,1.23
2022-10-17T14:44:27.630Z,1.27
2022-10-17T14:46:59.273Z,1.25
2022-10-17T14:49:35.187Z,1.25
2022-10-17T14:52:14.917Z,1.20
2022-10-17T14:54:49.811Z,1.30
2022-10-17T14:57:23.581Z,1.00
2022-10-17T14:59:54.626Z,1.55
2022-10-17T15:02:22.890Z,1.23
2022-10-17T15:04:49.354Z,1.40
2022-10-17T15:07:17.271Z,1.65
2022-10-17T15:09:45.019Z,1.20
2022-10-17T15:12:17.278Z,1.23
2022-10-17T15:14:44.626Z,1.30
2022-10-17T15:17:34.720Z,2.45
2022-10-17T15:20:01.285Z,1.45
2022-10-17T15:22:27.989Z,1.48
2022-10-17T15:24:54.759Z,1.30
2022-10-17T15:27:23.525Z,1.40
2022-10-17T15:29:51.494Z,1.52
2022-10-17T15:32:17.946Z,1.83
2022-10-17T15:34:44.847Z,2.00
2022-10-17T15:37:20.820Z,1.85
2022-10-17T15:39:55.215Z,1.70
2022-10-17T15:42:31.139Z,1.90
2022-10-17T15:44:58.500Z,1.90
2022-10-17T15:47:34.034Z,2.20
2022-10-17T15:50:01.613Z,2.42
2022-10-17T15:52:28.520Z,2.30
2022-10-17T15:54:56.496Z,2.30
2022-10-17T15:57:28.126Z,2.40
2022-10-17T15:59:57.302Z,2.20
2022-10-17T16:02:24.134Z,2.40
2022-10-17T16:04:52.026Z,2.40
2022-10-17T16:07:19.706Z,2.00
2022-10-17T16:09:46.334Z,1.80
2022-10-17T16:12:28.939Z,2.00
2022-10-17T16:14:55.541Z,2.00
2022-10-17T16:17:21.976Z,2.00
2022-10-17T16:19:48.415Z,1.90
2022-10-17T16:22:36.740Z,1.55
2022-10-17T16:25:19.309Z,1.58
2022-10-17T16:27:47.273Z,1.92
2022-10-17T16:30:14.083Z,1.83
2022-10-17T16:32:40.573Z,2.13
2022-10-17T16:35:08.058Z,1.75
2022-10-17T16:37:35.796Z,1.55
2022-10-17T16:40:04.391Z,2.33
2022-10-17T16:42:31.139Z,1.90
2022-10-17T16:44:58.036Z,1.50
2022-10-17T16:47:24.500Z,2.10
2022-10-17T16:49:51.059Z,2.38
2022-10-17T16:52:17.569Z,1.80
2022-10-17T16:54:44.086Z,1.98
2022-10-17T16:57:10.576Z,2.13
2022-10-17T16:59:37.022Z,2.13
2022-10-17T17:02:03.537Z,1.70
2022-10-17T17:04:30.240Z,1.70
2022-10-17T17:06:56.686Z,2.05
2022-10-17T17:09:23.204Z,2.33
2022-10-17T17:11:49.715Z,2.47
2022-10-17T17:14:16.154Z,2.38
2022-10-17T17:16:43.421Z,2.60
2022-10-17T17:19:15.218Z,2.38
2022-10-17T17:21:47.528Z,2.88
2022-10-17T17:24:14.085Z,3.17
2022-10-17T17:26:41.549Z,3.15
2022-10-17T17:29:08.156Z,3.60
2022-10-17T17:31:35.647Z,2.45
2022-10-17T17:34:02.698Z,2.92
2022-10-17T17:36:31.825Z,2.70
2022-10-17T17:39:00.080Z,5.38
2022-10-17T17:41:27.688Z,2.50
2022-10-17T17:43:54.850Z,2.75
2022-10-17T17:46:22.732Z,2.75
2022-10-17T17:48:50.308Z,3.45
2022-10-17T17:51:20.035Z,3.08
2022-10-17T17:53:47.161Z,2.70
2022-10-17T17:56:28.020Z,2.70
2022-10-17T17:59:00.100Z,2.80
2022-10-17T18:01:28.903Z,2.88
2022-10-17T18:03:56.207Z,2.38
2022-10-17T18:06:23.391Z,2.55
2022-10-17T18:08:52.145Z,2.55
2022-10-17T18:11:21.205Z,3.08
2022-10-17T18:13:53.955Z,2.83
2022-10-17T18:16:20.398Z,2.38
2022-10-17T18:18:46.818Z,2.33
2022-10-17T18:21:14.224Z,2.88
2022-10-17T18:23:43.689Z,3.65
2022-10-17T18:26:10.187Z,2.97
2022-10-17T18:28:38.323Z,3.13
2022-10-17T18:31:11.588Z,2.90
2022-10-17T18:33:38.298Z,3.00
2022-10-17T18:36:07.412Z,3.47
2022-10-17T18:38:34.440Z,2.45
2022-10-17T18:41:05.085Z,2.80
2022-10-17T18:43:33.858Z,3.35
2022-10-17T18:46:13.880Z,2.90
2022-10-17T18:48:44.392Z,3.00
2022-10-17T18:51:12.252Z,2.80
2022-10-17T18:53:43.431Z,3.05
2022-10-17T18:56:10.925Z,2.85
2022-10-17T18:58:38.778Z,3.63
2022-10-17T19:01:17.500Z,2.72
2022-10-17T19:03:46.327Z,2.88
2022-10-17T19:06:14.996Z,3.58
2022-10-17T19:08:42.485Z,3.20
2022-10-17T19:11:31.605Z,3.38
2022-10-17T19:14:01.569Z,3.22
2022-10-17T19:16:31.555Z,3.38
2022-10-17T19:19:11.573Z,3.00
2022-10-17T19:21:38.659Z,2.65
2022-10-17T19:24:07.950Z,3.53
2022-10-17T19:26:36.474Z,3.40
2022-10-17T19:29:04.625Z,3.13
2022-10-17T19:31:32.403Z,3.42
2022-10-17T19:33:59.501Z,3.78
2022-10-17T19:36:32.280Z,3.75
2022-10-17T19:39:02.258Z,4.32
2022-10-17T19:41:28.864Z,3.38
2022-10-17T19:43:55.436Z,2.90
2022-10-17T19:46:24.785Z,3.97
2022-10-17T19:48:51.898Z,3.00
2022-10-17T19:51:20.802Z,3.28
2022-10-17T19:53:47.685Z,3.65
2022-10-17T19:56:18.461Z,3.33
2022-10-17T19:58:46.605Z,3.30
2022-10-17T20:01:22.162Z,3.60
2022-10-17T20:03:49.278Z,3.60
2022-10-17T20:06:17.008Z,3.50
2022-10-17T20:08:44.318Z,4.90
2022-10-17T20:11:14.295Z,3.42
2022-10-17T20:13:41.091Z,3.83
2022-10-17T20:16:11.304Z,3.72
2022-10-17T20:18:38.286Z,3.47
2022-10-17T20:21:10.605Z,3.65
2022-10-17T20:23:38.081Z,3.43
2022-10-17T20:26:25.385Z,3.40
2022-10-17T20:28:53.050Z,3.35
2022-10-17T20:31:20.507Z,3.45
2022-10-17T20:33:46.980Z,3.53
2022-10-17T20:36:16.548Z,3.60
2022-10-17T20:38:43.026Z,3.45
2022-10-17T20:41:10.519Z,3.88
2022-10-17T20:43:38.099Z,3.72
2022-10-17T20:46:22.776Z,3.92
2022-10-17T20:48:54.539Z,4.10
2022-10-17T20:51:21.742Z,4.40
2022-10-17T20:53:48.919Z,3.75
2022-10-17T20:56:34.335Z,4.30
2022-10-17T20:59:03.660Z,3.50
2022-10-17T21:01:31.901Z,3.08
2022-10-17T21:04:06.134Z,4.82
2022-10-17T21:06:42.653Z,5.28
2022-10-17T21:09:09.377Z,5.30
2022-10-17T21:11:35.808Z,5.85
2022-10-17T21:14:04.967Z,5.10
2022-10-17T21:16:32.698Z,4.18
2022-10-17T21:18:59.921Z,4.68
2022-10-17T21:21:33.588Z,4.00
2022-10-17T21:24:06.422Z,4.10
2022-10-17T21:26:34.552Z,3.35
2022-10-17T21:29:05.886Z,3.75
2022-10-17T21:31:37.490Z,3.83
2022-10-17T21:34:12.053Z,3.63
2022-10-17T21:36:38.915Z,4.30
2022-10-17T21:39:05.521Z,4.80
2022-10-17T21:41:32.289Z,4.82
2022-10-17T21:44:04.704Z,4.88
2022-10-17T21:46:31.780Z,4.70
2022-10-17T21:49:00.030Z,5.32
2022-10-17T21:51:27.602Z,5.53
2022-10-17T21:53:56.034Z,5.60
2022-10-17T21:56:30.734Z,6.93
2022-10-17T21:58:58.451Z,6.38
2022-10-17T22:01:28.002Z,7.45
2022-10-17T22:03:56.926Z,6.50
2022-10-17T22:06:39.235Z,7.55
2022-10-17T22:09:09.599Z,7.45
2022-10-17T22:11:36.607Z,7.47
2022-10-17T22:14:11.026Z,7.25
2022-10-17T22:16:38.445Z,6.97
2022-10-17T22:19:06.649Z,7.18
2022-10-17T22:21:35.451Z,6.10
2022-10-17T22:24:05.370Z,5.68
2022-10-17T22:26:33.463Z,4.95
2022-10-17T22:28:59.915Z,6.35
2022-10-17T22:31:26.629Z,5.25
2022-10-17T22:33:53.129Z,4.85
2022-10-17T22:36:19.595Z,5.85
2022-10-17T22:38:46.178Z,5.75
2022-10-17T22:41:12.609Z,5.97
2022-10-17T22:43:39.063Z,5.95
2022-10-17T22:46:07.223Z,5.53
2022-10-17T22:48:33.983Z,5.35
2022-10-17T22:51:01.219Z,5.13
2022-10-17T22:53:29.409Z,4.40
2022-10-17T22:56:00.335Z,4.88
2022-10-17T22:58:28.480Z,4.45
2022-10-17T23:00:55.810Z,4.40
2022-10-17T23:03:23.731Z,3.78
2022-10-17T23:05:50.540Z,4.32
2022-10-17T23:08:20.394Z,4.38
2022-10-17T23:10:47.844Z,5.32
2022-10-17T23:13:15.105Z,5.78
2022-10-17T23:15:42.455Z,5.78
2022-10-17T23:18:10.016Z,6.18
2022-10-17T23:20:37.651Z,4.82
2022-10-17T23:23:05.049Z,5.15
2022-10-17T23:25:33.921Z,4.78
2022-10-17T23:28:00.431Z,4.55
2022-10-17T23:30:26.902Z,4.45
2022-10-17T23:32:53.567Z,3.92
2022-10-17T23:35:20.015Z,4.03
2022-10-17T23:37:46.428Z,5.90
2022-10-17T23:40:13.161Z,5.18
2022-10-17T23:42:39.594Z,5.47
2022-10-17T23:45:06.759Z,5.63
2022-10-17T23:47:33.533Z,5.82
2022-10-17T23:50:00.313Z,5.78
2022-10-17T23:52:26.729Z,5.15
2022-10-17T23:54:53.154Z,4.47
2022-10-17T23:57:19.581Z,4.95
2022-10-17T23:59:46.013Z,4.47
